createdAt,value
2023-10-08T00:00:08.482Z,100546.81
2023-10-08T00:03:15.672Z,100551.22
2023-10-08T00:06:02.924Z,100557.44
2023-10-08T00:08:50.256Z,100562.81
2023-10-08T00:11:38.217Z,100486.06
2023-10-08T00:14:26.054Z,100573.38
2023-10-08T00:17:13.169Z,100572.50
2023-10-08T00:20:01.072Z,100571.66
2023-10-08T00:22:47.974Z,100582.25
2023-10-08T00:25:35.475Z,100590.16
2023-10-08T00:28:22.370Z,100577.16
2023-10-08T00:31:09.521Z,100598.09
2023-10-08T00:33:56.585Z,100596.34
2023-10-08T00:36:44.186Z,100596.34
2023-10-08T00:39:34.991Z,100587.84
2023-10-08T00:42:22.163Z,100604.34
2023-10-08T00:45:09.096Z,100608.75
2023-10-08T00:47:56.238Z,100606.22
2023-10-08T00:50:43.624Z,100613.19
2023-10-08T00:53:31.865Z,100628.13
2023-10-08T00:56:18.979Z,100617.63
2023-10-08T00:59:09.984Z,100603.97
2023-10-08T01:01:57.164Z,100631.72
2023-10-08T01:04:44.396Z,100632.63
2023-10-08T01:07:35.910Z,100644.91
2023-10-08T01:10:22.881Z,100652.81
2023-10-08T01:13:15.819Z,100644.03
2023-10-08T01:16:03.109Z,100637.19
2023-10-08T01:18:50.041Z,100659.91
2023-10-08T01:21:37.967Z,100656.41
2023-10-08T01:24:25.029Z,100667.78
2023-10-08T01:27:12.005Z,100675.66
2023-10-08T01:30:00.332Z,100681.84
2023-10-08T01:32:47.590Z,100664.44
2023-10-08T01:35:43.181Z,100676.63
2023-10-08T01:38:30.871Z,100660.31
2023-10-08T01:41:17.881Z,100673.25
2023-10-08T01:44:05.449Z,100694.22
2023-10-08T01:46:52.453Z,100699.47
2023-10-08T01:49:39.473Z,100708.25
2023-10-08T01:52:30.311Z,100702.16
2023-10-08T01:55:17.703Z,100704.75
2023-10-08T01:58:05.752Z,100701.38
2023-10-08T02:00:52.920Z,100645.19
2023-10-08T02:03:40.132Z,100706.50
2023-10-08T02:06:27.280Z,100706.50
2023-10-08T02:09:14.617Z,100716.22
2023-10-08T02:12:10.132Z,100686.94
2023-10-08T02:14:57.103Z,100712.69
2023-10-08T02:17:44.300Z,100722.25
2023-10-08T02:20:31.720Z,100738.03
2023-10-08T02:23:39.009Z,100695.75
2023-10-08T02:26:26.151Z,100740.69
2023-10-08T02:29:13.599Z,100746.84
2023-10-08T02:32:01.855Z,100751.25
2023-10-08T02:34:48.986Z,100764.38
2023-10-08T02:37:36.282Z,100761.72
2023-10-08T02:40:23.320Z,100776.69
2023-10-08T02:43:10.261Z,100783.66
2023-10-08T02:45:57.199Z,100779.28
2023-10-08T02:48:44.177Z,100784.50
2023-10-08T02:51:31.158Z,100797.69
2023-10-08T02:54:18.227Z,100803.78
2023-10-08T02:57:11.388Z,100812.53
2023-10-08T03:00:01.324Z,100810.78
2023-10-08T03:02:48.675Z,100822.19
2023-10-08T03:05:35.937Z,100816.97
2023-10-08T03:08:24.833Z,100817.75
2023-10-08T03:11:19.467Z,100812.56
2023-10-08T03:14:10.258Z,100819.50
2023-10-08T03:16:57.267Z,100816.88
2023-10-08T03:19:44.148Z,100836.13
2023-10-08T03:22:32.325Z,100791.19
2023-10-08T03:25:19.161Z,100839.66
2023-10-08T03:28:06.124Z,100846.66
2023-10-08T03:30:53.124Z,100846.66
2023-10-08T03:33:44.279Z,100852.81
2023-10-08T03:36:43.352Z,100850.22
2023-10-08T03:39:33.135Z,100856.31
2023-10-08T03:42:20.020Z,100851.91
2023-10-08T03:45:07.021Z,100858.94
2023-10-08T03:47:54.008Z,100858.94
2023-10-08T03:50:41.270Z,100866.81
2023-10-08T03:53:34.149Z,100876.47
2023-10-08T03:56:21.108Z,100886.06
2023-10-08T03:59:08.033Z,100896.59
2023-10-08T04:01:54.984Z,100906.28
2023-10-08T04:04:42.955Z,100905.47
2023-10-08T04:07:28.250Z,100912.44
2023-10-08T04:10:11.751Z,100911.56
2023-10-08T04:12:59.051Z,100902.00
2023-10-08T04:15:46.088Z,100909.88
2023-10-08T04:18:33.343Z,100927.34
2023-10-08T04:21:20.422Z,100927.31
2023-10-08T04:24:08.089Z,100930.84
2023-10-08T04:26:55.698Z,100897.13
2023-10-08T04:29:42.810Z,100952.72
2023-10-08T04:32:29.759Z,100950.09
2023-10-08T04:35:16.854Z,100942.25
2023-10-08T04:38:03.707Z,100959.72
2023-10-08T04:40:50.751Z,100960.59
2023-10-08T04:43:51.642Z,100901.69
2023-10-08T04:46:38.757Z,100963.28
2023-10-08T04:49:28.402Z,100980.75
2023-10-08T04:52:26.853Z,100985.16
2023-10-08T04:55:13.925Z,100989.50
2023-10-08T04:58:01.275Z,100987.75
2023-10-08T05:00:48.250Z,100993.03
2023-10-08T05:03:35.254Z,100993.94
2023-10-08T05:06:08.161Z,101003.53
2023-10-08T05:09:10.844Z,100999.31
2023-10-08T05:12:07.886Z,100973.25
2023-10-08T05:14:35.442Z,101021.03
2023-10-08T05:17:32.339Z,101025.41
2023-10-08T05:19:59.440Z,101027.22
2023-10-08T05:22:29.410Z,101034.22
2023-10-08T05:25:16.944Z,101041.22
2023-10-08T05:27:51.072Z,101036.91
2023-10-08T05:30:38.065Z,101049.13
2023-10-08T05:33:18.688Z,101054.38
2023-10-08T05:35:47.642Z,101064.94
2023-10-08T05:38:32.154Z,101062.28
2023-10-08T05:41:00.511Z,101062.28
2023-10-08T05:43:40.389Z,101073.72
2023-10-08T05:46:24.965Z,101077.19
2023-10-08T05:49:04.813Z,101073.69
2023-10-08T05:51:50.863Z,101067.50
2023-10-08T05:54:28.783Z,101072.78
2023-10-08T05:57:07.757Z,101081.56
2023-10-08T05:59:53.998Z,101083.31
2023-10-08T06:02:34.708Z,101085.13
2023-10-08T06:05:13.820Z,101053.09
2023-10-08T06:07:56.777Z,101095.56
2023-10-08T06:10:32.750Z,101099.94
2023-10-08T06:13:27.741Z,101097.28
2023-10-08T06:15:57.643Z,101109.53
2023-10-08T06:18:50.111Z,101112.16
2023-10-08T06:21:37.033Z,101100.97
2023-10-08T06:24:26.842Z,101118.25
2023-10-08T06:27:14.214Z,101125.28
2023-10-08T06:30:01.156Z,101129.59
2023-10-08T06:32:48.160Z,101133.03
2023-10-08T06:35:35.433Z,101133.03
2023-10-08T06:38:23.059Z,101145.25
2023-10-08T06:41:10.590Z,101146.94
2023-10-08T06:43:58.939Z,101142.56
2023-10-08T06:46:46.062Z,101156.56
2023-10-08T06:49:33.058Z,101155.63
2023-10-08T06:52:20.034Z,101162.47
2023-10-08T06:55:07.006Z,101170.34
2023-10-08T06:57:54.004Z,101173.81
2023-10-08T07:00:34.528Z,101178.13
2023-10-08T07:03:02.560Z,101189.47
2023-10-08T07:05:30.416Z,101181.50
2023-10-08T07:07:57.524Z,101188.44
2023-10-08T07:10:24.539Z,101186.63
2023-10-08T07:12:53.968Z,101184.84
2023-10-08T07:15:25.111Z,101195.28
2023-10-08T07:17:52.760Z,101197.84
2023-10-08T07:20:23.349Z,101203.91
2023-10-08T07:22:55.363Z,101211.75
2023-10-08T07:25:22.844Z,101173.47
2023-10-08T07:27:50.022Z,101176.88
2023-10-08T07:30:28.089Z,101218.53
2023-10-08T07:32:59.494Z,101190.88
2023-10-08T07:35:27.138Z,101221.00
2023-10-08T07:37:56.195Z,101219.31
2023-10-08T07:40:28.928Z,101223.47
2023-10-08T07:42:56.125Z,101227.84
2023-10-08T07:45:23.108Z,101228.63
2023-10-08T07:47:50.204Z,101233.81
2023-10-08T07:50:17.497Z,101239.00
2023-10-08T07:52:46.344Z,101241.53
2023-10-08T07:55:19.007Z,101251.19
2023-10-08T07:57:46.641Z,101251.06
2023-10-08T08:00:24.340Z,101247.50
2023-10-08T08:02:53.901Z,101244.88
2023-10-08T08:05:21.897Z,101249.19
2023-10-08T08:07:51.241Z,101254.28
2023-10-08T08:10:19.844Z,101251.56
2023-10-08T08:12:47.218Z,101262.00
2023-10-08T08:15:17.263Z,101261.91
2023-10-08T08:17:45.552Z,101257.41
2023-10-08T08:20:19.165Z,101264.34
2023-10-08T08:22:56.146Z,101261.59
2023-10-08T08:25:35.777Z,101269.44
2023-10-08T08:28:07.472Z,101270.19
2023-10-08T08:30:37.713Z,101270.06
2023-10-08T08:33:12.142Z,101246.53
2023-10-08T08:35:39.949Z,101273.31
2023-10-08T08:38:10.028Z,101281.16
2023-10-08T08:40:37.442Z,101229.81
2023-10-08T08:43:06.651Z,101279.09
2023-10-08T08:45:36.246Z,101278.09
2023-10-08T08:48:03.661Z,101279.75
2023-10-08T08:50:31.608Z,101280.44
2023-10-08T08:52:59.796Z,101277.69
2023-10-08T08:55:28.917Z,101274.00
2023-10-08T08:57:56.807Z,101277.34
2023-10-08T09:00:29.544Z,101290.44
2023-10-08T09:02:57.094Z,101274.75
2023-10-08T09:05:28.295Z,101288.28
2023-10-08T09:08:07.852Z,101294.25
2023-10-08T09:10:38.732Z,101291.41
2023-10-08T09:13:08.847Z,101260.88
2023-10-08T09:15:36.070Z,101307.59
2023-10-08T09:18:06.685Z,101307.41
2023-10-08T09:20:44.873Z,101305.31
2023-10-08T09:23:13.626Z,101277.44
2023-10-08T09:25:42.116Z,101309.22
2023-10-08T09:28:09.572Z,101300.16
2023-10-08T09:30:39.340Z,101310.31
2023-10-08T09:33:11.450Z,101308.28
2023-10-08T09:35:38.540Z,101314.78
2023-10-08T09:38:10.423Z,101303.69
2023-10-08T09:40:47.823Z,101281.38
2023-10-08T09:43:17.656Z,101274.13
2023-10-08T09:45:51.023Z,101291.28
2023-10-08T09:48:21.620Z,101311.00
2023-10-08T09:50:49.351Z,101308.53
2023-10-08T09:53:21.159Z,101311.44
2023-10-08T09:55:58.516Z,101318.66
2023-10-08T09:58:28.516Z,101315.22
2023-10-08T10:01:01.023Z,101303.34
2023-10-08T10:03:28.701Z,101323.25
2023-10-08T10:06:00.165Z,101316.94
2023-10-08T10:08:29.734Z,101318.47
2023-10-08T10:11:01.163Z,101314.72
2023-10-08T10:13:42.671Z,101311.72
2023-10-08T10:16:15.122Z,101316.44
2023-10-08T10:18:48.333Z,101313.16
2023-10-08T10:21:16.681Z,101317.94
2023-10-08T10:23:45.232Z,101317.50
2023-10-08T10:26:32.490Z,101311.56
2023-10-08T10:29:11.481Z,101315.44
2023-10-08T10:31:41.510Z,101314.19
2023-10-08T10:34:09.840Z,101302.25
2023-10-08T10:36:42.793Z,101308.91
2023-10-08T10:39:17.760Z,101302.75
2023-10-08T10:41:52.469Z,101307.06
2023-10-08T10:44:19.861Z,101318.41
2023-10-08T10:46:53.386Z,101302.34
2023-10-08T10:49:25.391Z,101309.75
2023-10-08T10:52:05.805Z,101308.38
2023-10-08T10:54:37.607Z,101303.47
2023-10-08T10:57:11.066Z,101293.81
2023-10-08T10:59:39.333Z,101311.91
2023-10-08T11:02:09.030Z,101308.94
2023-10-08T11:04:49.101Z,101306.81
2023-10-08T11:07:21.039Z,101310.84
2023-10-08T11:09:48.978Z,101320.28
2023-10-08T11:12:20.114Z,101308.31
2023-10-08T11:14:53.303Z,101304.41
2023-10-08T11:17:28.134Z,101298.75
2023-10-08T11:19:55.304Z,101294.50
2023-10-08T11:22:24.293Z,101298.31
2023-10-08T11:24:55.430Z,101303.50
2023-10-08T11:27:36.998Z,101306.28
2023-10-08T11:30:12.398Z,101286.50
2023-10-08T11:32:42.439Z,101295.06
2023-10-08T11:35:17.620Z,101294.34
2023-10-08T11:37:51.888Z,101281.94
2023-10-08T11:40:30.904Z,101299.44
2023-10-08T11:43:04.721Z,101296.09
2023-10-08T11:45:40.003Z,101277.59
2023-10-08T11:48:13.469Z,101304.47
2023-10-08T11:50:42.128Z,101311.00
2023-10-08T11:53:09.451Z,101313.13
2023-10-08T11:55:38.480Z,101298.34
2023-10-08T11:58:18.511Z,101286.16
2023-10-08T12:00:47.167Z,101290.84
2023-10-08T12:03:20.639Z,101289.31
2023-10-08T12:05:59.827Z,101284.44
2023-10-08T12:08:31.107Z,101280.16
2023-10-08T12:11:04.904Z,101282.03
2023-10-08T12:13:32.360Z,101287.59
2023-10-08T12:16:07.727Z,101288.69
2023-10-08T12:18:41.969Z,101275.41
2023-10-08T12:21:15.846Z,101292.81
2023-10-08T12:23:51.088Z,101273.09
2023-10-08T12:26:20.466Z,101277.38
2023-10-08T12:28:51.625Z,101260.00
2023-10-08T12:31:23.334Z,101287.81
2023-10-08T12:33:58.323Z,101280.47
2023-10-08T12:36:27.451Z,101282.19
2023-10-08T12:39:01.012Z,101292.59
2023-10-08T12:41:28.180Z,101297.16
2023-10-08T12:43:55.714Z,101300.31
2023-10-08T12:46:27.042Z,101297.13
2023-10-08T12:48:55.982Z,101294.78
2023-10-08T12:51:25.426Z,101298.69
2023-10-08T12:54:07.690Z,101299.78
2023-10-08T12:56:50.138Z,101297.41
2023-10-08T12:59:25.545Z,101309.53
2023-10-08T13:01:55.997Z,101266.59
2023-10-08T13:04:30.466Z,101296.97
2023-10-08T13:07:02.845Z,101306.41
2023-10-08T13:09:32.728Z,101303.19
2023-10-08T13:12:01.026Z,101307.47
2023-10-08T13:14:28.168Z,101305.59
2023-10-08T13:16:55.423Z,101297.44
2023-10-08T13:19:25.106Z,101309.00
2023-10-08T13:21:55.536Z,101296.16
2023-10-08T13:24:25.314Z,101307.03
2023-10-08T13:26:52.961Z,101310.53
2023-10-08T13:29:20.401Z,101306.81
2023-10-08T13:31:48.161Z,101299.72
2023-10-08T13:34:17.598Z,101307.47
2023-10-08T13:36:48.364Z,101315.31
2023-10-08T13:39:22.666Z,101303.56
2023-10-08T13:41:49.843Z,101309.59
2023-10-08T13:44:17.107Z,101312.94
2023-10-08T13:46:50.522Z,101314.41
2023-10-08T13:49:18.347Z,101321.19
2023-10-08T13:51:57.170Z,101311.81
2023-10-08T13:54:30.163Z,101310.47
2023-10-08T13:56:59.798Z,101313.31
2023-10-08T13:59:27.671Z,101309.06
2023-10-08T14:01:56.205Z,101320.78
2023-10-08T14:04:32.099Z,101307.78
2023-10-08T14:06:59.900Z,101312.19
2023-10-08T14:09:33.622Z,101320.91
2023-10-08T14:12:01.912Z,101311.19
2023-10-08T14:14:34.742Z,101316.25
2023-10-08T14:17:09.075Z,101313.53
2023-10-08T14:19:53.694Z,101316.09
2023-10-08T14:22:23.861Z,101312.34
2023-10-08T14:25:00.023Z,101311.22
2023-10-08T14:27:34.676Z,101319.97
2023-10-08T14:30:02.635Z,101316.94
2023-10-08T14:32:33.555Z,101315.63
2023-10-08T14:35:19.046Z,101317.94
2023-10-08T14:38:04.681Z,101324.69
2023-10-08T14:40:50.528Z,101325.31
2023-10-08T14:43:21.549Z,101311.81
2023-10-08T14:45:48.876Z,101318.34
2023-10-08T14:48:16.272Z,101304.81
2023-10-08T14:50:44.025Z,101315.63
2023-10-08T14:53:11.178Z,101319.63
2023-10-08T14:55:38.801Z,101313.88
2023-10-08T14:58:09.683Z,101323.81
2023-10-08T15:00:38.958Z,101319.75
2023-10-08T15:03:06.684Z,101300.16
2023-10-08T15:05:34.022Z,101325.81
2023-10-08T15:08:01.386Z,101287.94
2023-10-08T15:10:28.420Z,101295.22
2023-10-08T15:12:55.409Z,101318.75
2023-10-08T15:15:26.306Z,101318.97
2023-10-08T15:17:53.972Z,101328.13
2023-10-08T15:20:21.523Z,101256.59
2023-10-08T15:22:50.642Z,101300.09
2023-10-08T15:25:19.377Z,101325.47
2023-10-08T15:27:48.774Z,101322.22
2023-10-08T15:30:20.672Z,101313.94
2023-10-08T15:32:49.114Z,101295.97
2023-10-08T15:35:25.343Z,101322.28
2023-10-08T15:37:53.473Z,101319.94
2023-10-08T15:40:21.488Z,101321.16
2023-10-08T15:42:52.683Z,101314.31
2023-10-08T15:45:25.256Z,101316.44
2023-10-08T15:47:53.884Z,101330.91
2023-10-08T15:50:22.567Z,101327.75
2023-10-08T15:52:50.974Z,101321.81
2023-10-08T15:55:19.492Z,101323.22
2023-10-08T15:57:46.404Z,101317.16
2023-10-08T16:00:14.893Z,101320.13
2023-10-08T16:02:44.396Z,101310.09
2023-10-08T16:05:11.405Z,101326.09
2023-10-08T16:07:38.536Z,101324.59
2023-10-08T16:10:06.177Z,101318.72
2023-10-08T16:12:33.341Z,101316.56
2023-10-08T16:15:00.415Z,101324.66
2023-10-08T16:17:32.464Z,101279.16
2023-10-08T16:19:59.900Z,101324.34
2023-10-08T16:22:27.132Z,101330.81
2023-10-08T16:24:54.222Z,101321.34
2023-10-08T16:27:21.268Z,101323.38
2023-10-08T16:29:48.695Z,101312.97
2023-10-08T16:32:16.048Z,101322.97
2023-10-08T16:34:44.058Z,101309.97
2023-10-08T16:37:15.961Z,101325.22
2023-10-08T16:39:43.124Z,101315.75
2023-10-08T16:42:10.092Z,101321.34
2023-10-08T16:44:37.098Z,101329.47
2023-10-08T16:47:04.587Z,101336.72
2023-10-08T16:49:31.593Z,101324.63
2023-10-08T16:51:59.980Z,101329.22
2023-10-08T16:54:27.308Z,101323.25
2023-10-08T16:56:54.370Z,101328.72
2023-10-08T16:59:21.325Z,101316.91
2023-10-08T17:01:48.422Z,101330.88
2023-10-08T17:04:15.496Z,101327.56
2023-10-08T17:06:42.563Z,101321.59
2023-10-08T17:09:15.558Z,101334.03
2023-10-08T17:11:47.975Z,101323.59
2023-10-08T17:14:15.562Z,101325.56
2023-10-08T17:16:45.694Z,101316.94
2023-10-08T17:19:13.075Z,101309.25
2023-10-08T17:21:40.748Z,101320.00
2023-10-08T17:24:10.421Z,101327.22
2023-10-08T17:26:39.017Z,101329.00
2023-10-08T17:29:09.809Z,101333.56
2023-10-08T17:31:38.736Z,101324.06
2023-10-08T17:34:06.989Z,101328.53
2023-10-08T17:36:37.086Z,101313.66
2023-10-08T17:39:19.282Z,101320.88
2023-10-08T17:41:46.904Z,101327.16
2023-10-08T17:44:15.227Z,101320.19
2023-10-08T17:46:44.342Z,101314.13
2023-10-08T17:49:14.832Z,101321.28
2023-10-08T17:51:42.085Z,101318.72
2023-10-08T17:54:15.083Z,101321.47
2023-10-08T17:56:42.725Z,101311.00
2023-10-08T17:59:13.991Z,101307.75
2023-10-08T18:01:43.370Z,101320.06
2023-10-08T18:04:14.932Z,101326.25
2023-10-08T18:06:45.619Z,101322.84
2023-10-08T18:09:14.390Z,101318.44
2023-10-08T18:11:44.585Z,101313.19
2023-10-08T18:14:15.550Z,101315.00
2023-10-08T18:16:43.675Z,101314.16
2023-10-08T18:19:12.119Z,101308.94
2023-10-08T18:21:40.435Z,101310.69
2023-10-08T18:24:10.446Z,101311.63
2023-10-08T18:26:42.874Z,101310.78
2023-10-08T18:29:14.789Z,101306.41
2023-10-08T18:31:42.990Z,101296.13
2023-10-08T18:34:10.988Z,101303.81
2023-10-08T18:36:38.512Z,101311.81
2023-10-08T18:39:15.698Z,101303.91
2023-10-08T18:41:44.432Z,101290.09
2023-10-08T18:44:12.211Z,101275.53
2023-10-08T18:46:39.385Z,101303.09
2023-10-08T18:49:11.685Z,101304.00
2023-10-08T18:51:44.062Z,101261.56
2023-10-08T18:54:13.706Z,101310.19
2023-10-08T18:56:41.913Z,101309.34
2023-10-08T18:59:13.073Z,101300.59
2023-10-08T19:01:44.777Z,101272.09
2023-10-08T19:04:13.644Z,101299.72
2023-10-08T19:06:41.167Z,101300.63
2023-10-08T19:09:11.615Z,101287.63
2023-10-08T19:11:39.473Z,101302.34
2023-10-08T19:14:07.638Z,101300.63
2023-10-08T19:16:34.652Z,101293.56
2023-10-08T19:19:02.771Z,101295.34
2023-10-08T19:21:30.412Z,101290.94
2023-10-08T19:23:58.751Z,101293.56
2023-10-08T19:26:29.249Z,101290.03
2023-10-08T19:28:59.745Z,101290.88
2023-10-08T19:31:27.828Z,101293.53
2023-10-08T19:33:55.966Z,101271.13
2023-10-08T19:36:24.317Z,101297.84
2023-10-08T19:38:51.987Z,101296.97
2023-10-08T19:41:22.838Z,101298.72
2023-10-08T19:43:53.067Z,101296.94
2023-10-08T19:46:26.618Z,101296.94
2023-10-08T19:48:54.465Z,101303.97
2023-10-08T19:51:23.501Z,101296.03
2023-10-08T19:53:54.619Z,101296.84
2023-10-08T19:56:22.613Z,101287.31
2023-10-08T19:58:49.724Z,101289.81
2023-10-08T20:01:18.052Z,101266.38
2023-10-08T20:03:46.027Z,101293.28
2023-10-08T20:06:14.473Z,101294.16
2023-10-08T20:08:41.842Z,101250.00
2023-10-08T20:11:09.007Z,101297.66
2023-10-08T20:13:40.213Z,101271.56
2023-10-08T20:16:08.123Z,101283.56
2023-10-08T20:18:37.124Z,101277.50
2023-10-08T20:21:06.465Z,101278.28
2023-10-08T20:23:39.865Z,101275.63
2023-10-08T20:26:15.357Z,101276.53
2023-10-08T20:28:43.335Z,101271.28
2023-10-08T20:31:15.358Z,101269.56
2023-10-08T20:33:45.801Z,101268.63
2023-10-08T20:36:18.772Z,101259.13
2023-10-08T20:38:46.260Z,101266.03
2023-10-08T20:41:23.012Z,101258.16
2023-10-08T20:43:50.242Z,101233.09
2023-10-08T20:46:18.067Z,101267.06
2023-10-08T20:48:49.818Z,101228.03
2023-10-08T20:51:19.706Z,101257.41
2023-10-08T20:53:48.291Z,101257.50
2023-10-08T20:56:17.197Z,101263.72
2023-10-08T20:58:44.647Z,101255.84
2023-10-08T21:01:12.314Z,101252.56
2023-10-08T21:03:40.053Z,101248.09
2023-10-08T21:06:07.740Z,101243.81
2023-10-08T21:08:36.456Z,101210.72
2023-10-08T21:11:04.624Z,101245.53
2023-10-08T21:13:32.090Z,101244.75
2023-10-08T21:16:02.012Z,101251.84
2023-10-08T21:18:31.274Z,101246.66
2023-10-08T21:20:58.807Z,101249.31
2023-10-08T21:23:25.838Z,101244.06
2023-10-08T21:25:53.145Z,101197.25
2023-10-08T21:28:20.129Z,101237.16
2023-10-08T21:30:47.279Z,101239.91
2023-10-08T21:33:14.798Z,101243.47
2023-10-08T21:35:42.680Z,101247.94
2023-10-08T21:38:11.328Z,101233.09
2023-10-08T21:40:39.444Z,101238.41
2023-10-08T21:43:08.716Z,101243.81
2023-10-08T21:45:36.493Z,101232.56
2023-10-08T21:48:04.390Z,101244.81
2023-10-08T21:50:32.271Z,101244.91
2023-10-08T21:52:59.536Z,101245.00
2023-10-08T21:55:26.842Z,101240.69
2023-10-08T21:57:54.458Z,101244.25
2023-10-08T22:00:25.230Z,101236.44
2023-10-08T22:02:55.284Z,101229.50
2023-10-08T22:05:23.563Z,101226.97
2023-10-08T22:07:54.702Z,101232.38
2023-10-08T22:10:22.243Z,101226.25
2023-10-08T22:12:50.937Z,101220.22
2023-10-08T22:15:18.213Z,101216.88
2023-10-08T22:17:46.929Z,101221.19
2023-10-08T22:20:33.938Z,101220.47
2023-10-08T22:23:03.197Z,101218.75
2023-10-08T22:25:34.292Z,101203.22
2023-10-08T22:28:03.518Z,101187.81
2023-10-08T22:30:30.964Z,101215.50
2023-10-08T22:33:00.727Z,101205.16
2023-10-08T22:35:29.566Z,101201.63
2023-10-08T22:38:02.899Z,101202.59
2023-10-08T22:41:05.446Z,101198.41
2023-10-08T22:43:37.156Z,101201.94
2023-10-08T22:46:07.691Z,101204.66
2023-10-08T22:48:45.997Z,101194.13
2023-10-08T22:51:28.117Z,101198.66
2023-10-08T22:53:57.263Z,101196.97
2023-10-08T22:56:25.439Z,101199.72
2023-10-08T22:58:54.006Z,101187.47
2023-10-08T23:01:23.375Z,101194.59
2023-10-08T23:03:53.303Z,101192.91
2023-10-08T23:06:23.186Z,101193.91
2023-10-08T23:08:50.848Z,101190.44
2023-10-08T23:11:17.899Z,101188.75
2023-10-08T23:13:45.947Z,101189.72
2023-10-08T23:16:16.507Z,101190.72
2023-10-08T23:18:46.829Z,101189.88
2023-10-08T23:21:17.218Z,101183.03
2023-10-08T23:23:47.930Z,101177.97
2023-10-08T23:26:17.554Z,101153.69
2023-10-08T23:28:48.522Z,101145.06
2023-10-08T23:31:16.175Z,101178.88
2023-10-08T23:33:48.748Z,101172.00
2023-10-08T23:36:18.240Z,101182.59
2023-10-08T23:38:54.184Z,101168.59
2023-10-08T23:41:33.699Z,101166.03
2023-10-08T23:44:04.110Z,101163.53
2023-10-08T23:46:33.033Z,101164.47
2023-10-08T23:49:07.230Z,101162.78
2023-10-08T23:51:39.460Z,101158.50
2023-10-08T23:54:13.802Z,101156.88
2023-10-08T23:56:46.471Z,101169.25
2023-10-08T23:59:18.633Z,101169.34
